Time;durP1;ratioP1;P1;durP2;ratioP2;P2;SDS_P1;SDS_P2;PMS_P1;PMS_P2;Temp;Humidity;BMP_temperature;BMP_pressure;BME280_temperature;BME280_humidity;BME280_pressure;Samples;Min_cycle;Max_cycle;Signal;HPM_P1;HPM_P2
2020/12/09 00:02:09;;;;;;;30.53;14.70;;;3.70;83.10;;;;;;5075085;28;20154;-79
2020/12/09 00:04:35;;;;;;;31.03;14.53;;;3.70;83.10;;;;;;5075317;28;20028;-79
2020/12/09 00:07:00;;;;;;;29.80;15.53;;;3.70;82.90;;;;;;5056992;28;20052;-79
2020/12/09 00:09:26;;;;;;;32.33;15.37;;;3.70;82.90;;;;;;5057829;28;20028;-79
2020/12/09 00:11:54;;;;;;;31.40;14.80;;;3.70;83.40;;;;;;5057606;28;20078;-79
2020/12/09 00:14:22;;;;;;;33.00;15.90;;;3.70;83.40;;;;;;5056899;28;20028;-79
2020/12/09 00:16:48;;;;;;;29.27;14.37;;;3.80;83.30;;;;;;5057106;28;20028;-79
2020/12/09 00:19:14;;;;;;;30.63;14.97;;;3.70;83.40;;;;;;5074611;28;20029;-79
2020/12/09 00:21:39;;;;;;;32.17;15.07;;;3.60;83.90;;;;;;5057336;28;20082;-79
2020/12/09 00:24:05;;;;;;;32.43;15.53;;;3.70;83.70;;;;;;5056630;28;20033;-79
2020/12/09 00:26:32;;;;;;;28.80;15.33;;;3.70;83.60;;;;;;5056784;28;20029;-79
2020/12/09 00:28:59;;;;;;;32.97;15.40;;;3.70;83.30;;;;;;5074010;28;20088;-80
2020/12/09 00:31:30;;;;;;;35.13;15.97;;;3.80;83.50;;;;;;5074732;28;20481;-79
2020/12/09 00:33:57;;;;;;;34.33;14.55;;;3.70;83.20;;;;;;5057137;28;20457;-79
2020/12/09 00:36:23;;;;;;;37.83;16.37;;;3.80;83.20;;;;;;5074242;28;20465;-79
2020/12/09 00:38:50;;;;;;;30.63;15.70;;;3.80;83.10;;;;;;5056866;28;20377;-79
2020/12/09 00:41:18;;;;;;;31.27;15.03;;;3.80;83.10;;;;;;5056381;28;20031;-79
2020/12/09 00:43:44;;;;;;;35.87;16.17;;;3.80;83.30;;;;;;5056815;28;20032;-79
2020/12/09 00:46:17;;;;;;;35.43;16.77;;;3.70;83.20;;;;;;5056041;28;20036;-79
2020/12/09 00:48:43;;;;;;;32.40;15.67;;;3.70;83.40;;;;;;5056670;28;20024;-79
2020/12/09 00:51:16;;;;;;;39.50;17.27;;;3.80;83.50;;;;;;5056192;28;20089;-79
2020/12/09 00:53:41;;;;;;;33.20;16.17;;;3.70;83.50;;;;;;5056749;28;20081;-79
2020/12/09 00:56:08;;;;;;;33.30;16.50;;;3.70;83.60;;;;;;5073526;28;20040;-79
2020/12/09 00:58:34;;;;;;;30.33;13.70;;;3.70;83.60;;;;;;5074145;28;20036;-79
2020/12/09 01:01:00;;;;;;;35.63;15.77;;;3.80;83.60;;;;;;5073773;28;20032;-81
2020/12/09 01:03:26;;;;;;;33.17;15.13;;;3.80;83.60;;;;;;5074188;28;20079;-79
2020/12/09 01:05:51;;;;;;;33.80;15.57;;;3.80;83.50;;;;;;5056442;28;20492;-79
2020/12/09 01:08:17;;;;;;;33.73;15.57;;;3.70;83.50;;;;;;5073485;28;20025;-79
2020/12/09 01:10:42;;;;;;;30.83;15.10;;;3.70;83.60;;;;;;5055464;28;20031;-79
2020/12/09 01:13:08;;;;;;;33.37;15.77;;;3.70;83.60;;;;;;5055694;28;20020;-79
2020/12/09 01:15:34;;;;;;;33.30;16.50;;;3.70;83.80;;;;;;5056156;28;20060;-79
2020/12/09 01:17:59;;;;;;;32.00;15.27;;;3.60;83.80;;;;;;5073974;28;20377;-79
2020/12/09 01:20:25;;;;;;;33.50;15.67;;;3.70;84.10;;;;;;5055620;28;20082;-79
2020/12/09 01:22:50;;;;;;;33.80;15.77;;;3.70;84.00;;;;;;5056107;28;20024;-79
2020/12/09 01:25:16;;;;;;;31.63;14.57;;;3.70;84.00;;;;;;5055559;28;20466;-78
2020/12/09 01:27:42;;;;;;;31.63;14.80;;;3.70;83.70;;;;;;5073695;28;20040;-79
2020/12/09 01:30:07;;;;;;;33.37;15.37;;;3.70;83.90;;;;;;5073176;28;20535;-79
2020/12/09 01:32:33;;;;;;;33.83;15.20;;;3.60;84.00;;;;;;5056186;28;20025;-79
2020/12/09 01:34:59;;;;;;;34.23;15.43;;;3.60;84.70;;;;;;5055948;28;20020;-79
2020/12/09 01:37:24;;;;;;;31.63;14.97;;;3.70;84.20;;;;;;5055418;28;20067;-79
2020/12/09 01:39:50;;;;;;;31.90;14.50;;;3.70;84.30;;;;;;5073670;28;20029;-79
2020/12/09 01:42:16;;;;;;;31.57;14.87;;;3.80;84.20;;;;;;5055249;28;20025;-79
2020/12/09 01:44:41;;;;;;;33.13;15.33;;;3.80;84.00;;;;;;5055809;28;20035;-79
2020/12/09 01:47:07;;;;;;;29.83;14.40;;;3.80;84.00;;;;;;5055190;28;20559;-79
2020/12/09 01:49:34;;;;;;;34.37;15.33;;;3.80;83.90;;;;;;5073686;28;20028;-79
2020/12/09 01:52:04;;;;;;;30.33;14.23;;;3.80;84.00;;;;;;5073447;28;20024;-79
2020/12/09 01:54:33;;;;;;;34.17;15.40;;;3.80;84.10;;;;;;5055715;28;20056;-79
2020/12/09 01:57:14;;;;;;;31.87;15.47;;;3.70;84.20;;;;;;5055456;28;20029;-79
2020/12/09 01:59:40;;;;;;;34.55;15.90;;;3.70;84.30;;;;;;5055887;28;20034;-79
2020/12/09 02:02:07;;;;;;;33.97;15.87;;;3.70;84.30;;;;;;5073017;28;20491;-79
2020/12/09 02:04:37;;;;;;;33.77;15.30;;;3.70;84.40;;;;;;5073435;28;20024;-79
2020/12/09 02:07:03;;;;;;;33.40;15.83;;;3.70;84.60;;;;;;5073069;28;20037;-79
2020/12/09 02:09:29;;;;;;;29.73;15.40;;;3.70;84.60;;;;;;5055557;28;20028;-79
2020/12/09 02:11:56;;;;;;;32.43;15.50;;;3.60;84.70;;;;;;5073271;28;20082;-79
2020/12/09 02:14:23;;;;;;;30.83;14.83;;;3.60;84.80;;;;;;5072704;28;20116;-79
2020/12/09 02:16:54;;;;;;;40.53;16.57;;;3.70;85.00;;;;;;5073251;28;20054;-79
2020/12/09 02:19:21;;;;;;;36.17;16.13;;;3.70;85.40;;;;;;5072657;28;20028;-79
2020/12/09 02:21:46;;;;;;;37.60;16.70;;;3.70;85.00;;;;;;5057012;28;20087;-79
2020/12/09 02:24:12;;;;;;;31.57;15.17;;;3.70;85.00;;;;;;5059113;28;20382;-79
2020/12/09 02:26:49;;;;;;;31.90;15.17;;;3.70;85.00;;;;;;5076538;28;20040;-79
2020/12/09 02:29:15;;;;;;;34.03;15.17;;;3.70;85.10;;;;;;5058185;28;20035;-77
2020/12/09 02:31:41;;;;;;;32.90;15.60;;;3.70;85.10;;;;;;5059070;28;20119;-77
2020/12/09 02:34:08;;;;;;;33.73;15.80;;;3.70;85.00;;;;;;5076178;28;20020;-78
2020/12/09 02:36:34;;;;;;;34.47;15.93;;;3.80;85.60;;;;;;5059248;28;20035;-77
2020/12/09 02:39:00;;;;;;;34.20;15.80;;;3.80;84.70;;;;;;5059066;28;20033;-77
2020/12/09 02:41:26;;;;;;;35.97;16.30;;;3.80;84.80;;;;;;5058706;28;20036;-78
2020/12/09 02:43:52;;;;;;;33.03;15.77;;;3.80;84.70;;;;;;5059099;28;20032;-77
2020/12/09 02:46:17;;;;;;;34.77;16.20;;;3.70;84.80;;;;;;5058161;28;20466;-78
2020/12/09 02:48:43;;;;;;;35.17;15.80;;;3.70;84.80;;;;;;5058727;28;20028;-77
2020/12/09 02:51:09;;;;;;;37.57;17.10;;;3.80;85.00;;;;;;5058137;28;20060;-78
2020/12/09 02:53:34;;;;;;;38.23;17.30;;;3.70;84.90;;;;;;5058612;28;20035;-77
2020/12/09 02:56:00;;;;;;;37.93;16.70;;;3.70;85.00;;;;;;5058492;28;20042;-77
2020/12/09 02:58:26;;;;;;;36.60;17.13;;;3.80;85.20;;;;;;5075858;28;20264;-77
2020/12/09 03:00:52;;;;;;;36.37;16.23;;;3.70;85.20;;;;;;5058436;28;20024;-77
2020/12/09 03:03:18;;;;;;;39.47;17.87;;;3.70;85.40;;;;;;5075675;28;20032;-76
2020/12/09 03:05:43;;;;;;;35.57;17.87;;;3.70;85.40;;;;;;5058280;28;20028;-78
2020/12/09 03:08:09;;;;;;;34.10;17.07;;;3.80;85.50;;;;;;5075603;28;20454;-78
2020/12/09 03:10:34;;;;;;;36.43;17.20;;;3.80;85.20;;;;;;5058195;28;20382;-78
2020/12/09 03:13:01;;;;;;;39.77;17.23;;;3.80;85.30;;;;;;5058261;28;20020;-78
2020/12/09 03:15:27;;;;;;;40.57;17.40;;;3.80;85.30;;;;;;5057570;28;20036;-78
2020/12/09 03:17:52;;;;;;;36.77;17.13;;;3.70;85.30;;;;;;5058396;28;20029;-78
2020/12/09 03:20:18;;;;;;;36.67;17.03;;;3.80;85.40;;;;;;5057597;28;20436;-78
2020/12/09 03:22:43;;;;;;;35.67;16.37;;;3.80;85.20;;;;;;5075856;28;20103;-77
2020/12/09 03:25:09;;;;;;;37.97;16.30;;;3.70;85.30;;;;;;5057449;28;20025;-78
2020/12/09 03:27:35;;;;;;;41.00;17.13;;;3.80;85.60;;;;;;5075388;28;20048;-78
2020/12/09 03:30:00;;;;;;;33.47;15.50;;;3.80;85.30;;;;;;5075511;28;20123;-78
2020/12/09 03:32:26;;;;;;;35.27;16.07;;;3.80;85.20;;;;;;5074643;28;20104;-78
2020/12/09 03:34:51;;;;;;;34.97;16.10;;;3.90;85.00;;;;;;5075295;28;20115;-78
2020/12/09 03:37:18;;;;;;;35.83;16.40;;;3.90;85.60;;;;;;5057141;28;20457;-78
2020/12/09 03:39:44;;;;;;;41.57;17.83;;;3.90;84.90;;;;;;5057828;28;20431;-78
2020/12/09 03:42:09;;;;;;;37.80;16.97;;;3.90;84.80;;;;;;5057211;28;20177;-79
2020/12/09 03:44:35;;;;;;;35.73;17.17;;;3.80;84.70;;;;;;5057570;28;20039;-78
2020/12/09 03:47:04;;;;;;;40.77;17.43;;;3.80;84.80;;;;;;5057554;28;20484;-78
2020/12/09 03:49:30;;;;;;;38.23;17.90;;;3.90;84.80;;;;;;5075098;28;20481;-78
2020/12/09 03:51:56;;;;;;;37.00;16.87;;;3.90;84.70;;;;;;5057759;28;20020;-78
2020/12/09 03:54:21;;;;;;;38.60;16.67;;;3.90;84.90;;;;;;5057245;28;20532;-79
2020/12/09 03:56:47;;;;;;;35.10;15.80;;;3.90;84.80;;;;;;5057754;28;20025;-79
2020/12/09 03:59:13;;;;;;;34.50;16.23;;;3.90;85.10;;;;;;5057338;28;20032;-79
2020/12/09 04:01:38;;;;;;;38.13;17.10;;;3.90;85.10;;;;;;5057656;28;20522;-79
2020/12/09 04:04:04;;;;;;;36.60;16.37;;;3.90;85.20;;;;;;5057542;28;20021;-79
2020/12/09 04:06:29;;;;;;;37.93;16.20;;;3.90;85.40;;;;;;5056939;28;20350;-79
2020/12/09 04:08:55;;;;;;;32.57;16.87;;;3.90;85.50;;;;;;5075327;28;20021;-78
2020/12/09 04:11:20;;;;;;;38.03;17.10;;;3.90;85.70;;;;;;5074960;28;20028;-79
2020/12/09 04:13:46;;;;;;;34.47;16.53;;;3.90;85.80;;;;;;5075125;28;20047;-79
2020/12/09 04:16:12;;;;;;;34.97;16.47;;;3.90;86.00;;;;;;5056916;28;20024;-80
2020/12/09 04:18:38;;;;;;;33.27;15.73;;;3.90;86.10;;;;;;5057226;28;20024;-79
2020/12/09 04:21:04;;;;;;;36.73;16.47;;;3.90;86.20;;;;;;5074651;28;20025;-79
2020/12/09 04:23:29;;;;;;;36.03;16.70;;;3.90;86.30;;;;;;5056613;28;20024;-79
2020/12/09 04:25:55;;;;;;;37.43;16.80;;;3.90;86.20;;;;;;5056881;28;20043;-79
2020/12/09 04:28:21;;;;;;;36.23;16.47;;;3.90;86.30;;;;;;5074358;28;20098;-79
2020/12/09 04:30:46;;;;;;;32.83;15.87;;;3.90;86.30;;;;;;5074455;28;20076;-78
2020/12/09 04:33:12;;;;;;;35.83;16.87;;;3.90;86.40;;;;;;5056686;28;20085;-80
2020/12/09 04:35:39;;;;;;;35.63;17.43;;;3.80;86.50;;;;;;5057133;28;20469;-78
2020/12/09 04:38:05;;;;;;;38.57;17.07;;;3.80;86.50;;;;;;5056923;28;20119;-79
2020/12/09 04:40:31;;;;;;;33.73;16.20;;;3.90;86.70;;;;;;5074091;28;20448;-79
2020/12/09 04:43:02;;;;;;;35.30;16.43;;;3.90;86.60;;;;;;5056807;28;20021;-79
2020/12/09 04:45:30;;;;;;;36.13;16.87;;;3.90;86.50;;;;;;5056213;28;20026;-79
2020/12/09 04:48:06;;;;;;;37.53;16.73;;;4.00;86.50;;;;;;5074317;28;20123;-79
2020/12/09 04:50:35;;;;;;;37.07;17.33;;;3.90;86.40;;;;;;5056520;28;20046;-79
2020/12/09 04:53:31;;;;;;;34.23;16.97;;;3.90;86.60;;;;;;5056892;28;20536;-79
2020/12/09 04:55:58;;;;;;;37.07;16.83;;;3.90;86.50;;;;;;5043792;28;20042;-79
2020/12/09 04:58:43;;;;;;;38.30;17.57;;;4.00;86.40;;;;;;5056081;28;20029;-79
2020/12/09 05:01:14;;;;;;;37.17;17.13;;;4.00;86.20;;;;;;5056769;28;20070;-79
2020/12/09 05:03:49;;;;;;;34.77;16.13;;;4.00;86.30;;;;;;5074147;28;20067;-79
2020/12/09 05:06:16;;;;;;;36.80;16.47;;;4.00;86.30;;;;;;5073190;28;20104;-80
2020/12/09 05:08:55;;;;;;;35.20;16.13;;;4.00;86.20;;;;;;5056834;28;20115;-79
2020/12/09 05:11:22;;;;;;;36.53;16.57;;;4.00;86.30;;;;;;5073826;28;20021;-78
2020/12/09 05:13:52;;;;;;;35.63;15.77;;;4.00;86.40;;;;;;5056233;28;20381;-78
2020/12/09 05:16:19;;;;;;;35.33;16.20;;;4.00;86.60;;;;;;5055729;28;20028;-79
2020/12/09 05:18:46;;;;;;;40.17;17.97;;;3.90;86.60;;;;;;5056420;28;20024;-78
2020/12/09 05:21:13;;;;;;;37.07;16.70;;;3.90;86.80;;;;;;5056364;28;20024;-78
2020/12/09 05:23:51;;;;;;;32.93;16.17;;;3.90;86.90;;;;;;5055778;28;20028;-79
2020/12/09 05:26:26;;;;;;;36.73;16.73;;;4.00;87.00;;;;;;5073661;28;20033;-80
2020/12/09 05:29:15;;;;;;;39.03;17.63;;;4.00;86.80;;;;;;5073975;28;20485;-78
2020/12/09 05:31:43;;;;;;;35.73;15.93;;;4.00;86.80;;;;;;5073937;28;20040;-79
2020/12/09 05:34:30;;;;;;;33.17;15.63;;;3.90;86.70;;;;;;5073801;28;20032;-79
2020/12/09 05:36:57;;;;;;;36.80;17.23;;;4.00;86.50;;;;;;5056132;28;20037;-79
2020/12/09 05:39:24;;;;;;;32.20;15.23;;;4.00;86.40;;;;;;5055699;28;20107;-79
2020/12/09 05:41:50;;;;;;;35.57;16.73;;;4.00;86.30;;;;;;5073792;28;20381;-79
2020/12/09 05:44:16;;;;;;;33.93;16.70;;;4.10;86.20;;;;;;5055952;28;20025;-79
2020/12/09 05:47:02;;;;;;;35.73;16.47;;;4.00;86.10;;;;;;5056020;28;20035;-79
2020/12/09 05:49:30;;;;;;;34.43;16.63;;;4.10;86.20;;;;;;5055577;28;20028;-79
2020/12/09 05:52:09;;;;;;;35.80;16.70;;;4.00;85.80;;;;;;5055666;28;20025;-79
2020/12/09 05:54:37;;;;;;;35.90;17.07;;;4.00;86.10;;;;;;5055232;28;20466;-79
2020/12/09 05:57:05;;;;;;;36.43;17.43;;;3.90;85.90;;;;;;5058027;28;20165;-79
2020/12/09 05:59:47;;;;;;;31.37;16.00;;;3.80;86.50;;;;;;5059467;28;20063;-79
2020/12/09 06:02:21;;;;;;;33.87;15.77;;;3.90;86.90;;;;;;5059910;28;20143;-79
2020/12/09 06:04:53;;;;;;;31.03;16.10;;;3.90;86.60;;;;;;5060120;28;20032;-78
2020/12/09 06:07:20;;;;;;;33.78;15.95;;;4.00;86.60;;;;;;5059383;28;20043;-79
2020/12/09 06:10:00;;;;;;;32.33;15.83;;;4.00;86.50;;;;;;5059876;28;20028;-78
2020/12/09 06:12:26;;;;;;;33.27;16.63;;;4.00;86.20;;;;;;5077132;28;20063;-79
2020/12/09 06:15:12;;;;;;;36.07;16.37;;;4.10;86.20;;;;;;5059724;28;20461;-79
2020/12/09 06:17:37;;;;;;;35.23;16.67;;;4.00;86.30;;;;;;5059168;28;20028;-79
2020/12/09 06:20:03;;;;;;;36.13;16.20;;;4.00;86.30;;;;;;5059717;28;20039;-79
2020/12/09 06:22:34;;;;;;;35.17;15.73;;;4.00;86.30;;;;;;5058936;28;20028;-79
2020/12/09 06:25:07;;;;;;;33.83;16.50;;;4.00;86.30;;;;;;5059324;28;20050;-79
2020/12/09 06:27:34;;;;;;;37.27;16.57;;;4.00;86.30;;;;;;5058738;28;20041;-79
2020/12/09 06:30:00;;;;;;;31.90;15.80;;;4.00;86.20;;;;;;5059056;28;20045;-79
2020/12/09 06:32:26;;;;;;;35.97;16.03;;;4.10;86.30;;;;;;5076699;28;20029;-79
2020/12/09 06:35:10;;;;;;;32.40;16.60;;;4.10;86.00;;;;;;5059554;28;20553;-79
2020/12/09 06:37:36;;;;;;;32.50;15.83;;;4.10;85.80;;;;;;5076476;28;20025;-79
2020/12/09 06:40:10;;;;;;;33.00;15.67;;;4.10;85.90;;;;;;5058840;28;20496;-79
2020/12/09 06:42:36;;;;;;;33.50;15.27;;;4.20;85.80;;;;;;5058626;28;20029;-79
2020/12/09 06:45:03;;;;;;;31.10;15.63;;;4.20;85.50;;;;;;5059020;28;20123;-79
2020/12/09 06:47:28;;;;;;;33.40;15.53;;;4.10;85.50;;;;;;5058292;28;20486;-79
2020/12/09 06:49:55;;;;;;;30.27;15.07;;;4.10;85.60;;;;;;5076589;28;20028;-78
2020/12/09 06:52:34;;;;;;;35.70;17.10;;;4.20;85.50;;;;;;5058459;28;20377;-80
2020/12/09 06:55:01;;;;;;;35.00;15.53;;;4.20;85.40;;;;;;5076816;28;20028;-79
2020/12/09 06:57:35;;;;;;;34.70;16.30;;;4.20;85.50;;;;;;5058271;28;20040;-78
2020/12/09 07:00:10;;;;;;;33.57;15.20;;;4.20;85.50;;;;;;5058664;28;20025;-79
2020/12/09 07:02:37;;;;;;;30.27;15.50;;;4.20;85.60;;;;;;5058151;28;20020;-78
2020/12/09 07:05:13;;;;;;;34.00;15.70;;;4.30;85.60;;;;;;5075974;28;20043;-77
2020/12/09 07:07:41;;;;;;;33.37;15.60;;;4.30;85.50;;;;;;5057958;28;20485;-78
2020/12/09 07:10:12;;;;;;;30.03;14.93;;;4.30;85.60;;;;;;5076134;28;20052;-80
2020/12/09 07:12:38;;;;;;;36.17;16.57;;;4.20;85.60;;;;;;5057948;28;20028;-80
2020/12/09 07:15:05;;;;;;;33.63;15.63;;;4.30;85.60;;;;;;5076452;28;20043;-80
2020/12/09 07:17:32;;;;;;;31.43;15.27;;;4.20;86.00;;;;;;5057373;28;20033;-80
2020/12/09 07:19:58;;;;;;;32.47;15.87;;;4.30;86.00;;;;;;5076095;28;20054;-80
2020/12/09 07:22:25;;;;;;;32.30;14.93;;;4.30;86.00;;;;;;5058096;28;20025;-81
2020/12/09 07:24:51;;;;;;;32.07;15.87;;;4.30;86.00;;;;;;5075770;28;20037;-80
2020/12/09 07:27:18;;;;;;;36.17;17.10;;;4.30;85.80;;;;;;5058310;28;20076;-80
2020/12/09 07:29:45;;;;;;;33.10;15.37;;;4.30;86.10;;;;;;5074618;28;20144;-78
2020/12/09 07:32:15;;;;;;;34.43;16.50;;;4.30;86.10;;;;;;5058217;28;20032;-80
2020/12/09 07:34:55;;;;;;;32.00;15.83;;;4.30;86.00;;;;;;5057442;28;20024;-80
2020/12/09 07:37:27;;;;;;;35.70;16.37;;;4.30;86.20;;;;;;5057860;28;20385;-77
2020/12/09 07:39:54;;;;;;;31.92;16.08;;;4.30;86.30;;;;;;5075497;28;20029;-78
2020/12/09 07:42:22;;;;;;;36.23;17.40;;;4.30;86.00;;;;;;5057640;28;20481;-80
2020/12/09 07:44:49;;;;;;;38.40;16.30;;;4.40;85.90;;;;;;5075127;28;20527;-76
2020/12/09 07:47:28;;;;;;;34.43;16.47;;;4.40;86.00;;;;;;5057611;28;20036;-79
2020/12/09 07:49:56;;;;;;;36.60;16.67;;;4.40;85.80;;;;;;5057642;28;20028;-79
2020/12/09 07:52:25;;;;;;;34.40;16.23;;;4.30;85.90;;;;;;5075286;28;20054;-80
2020/12/09 07:54:53;;;;;;;32.33;15.60;;;4.30;86.20;;;;;;5057604;28;20032;-80
2020/12/09 07:57:19;;;;;;;35.57;15.90;;;4.30;86.20;;;;;;5057362;28;20098;-77
2020/12/09 07:59:44;;;;;;;32.43;15.07;;;4.30;86.00;;;;;;5056961;28;20025;-78
2020/12/09 08:02:21;;;;;;;34.97;16.50;;;4.40;85.90;;;;;;5057562;28;20036;-79
2020/12/09 08:05:07;;;;;;;37.20;15.67;;;4.30;86.00;;;;;;5056957;28;20028;-80
2020/12/09 08:07:33;;;;;;;32.17;14.87;;;4.40;86.00;;;;;;5056559;28;20132;-80
2020/12/09 08:10:10;;;;;;;33.53;15.17;;;4.30;85.90;;;;;;5057393;28;20120;-80
2020/12/09 08:12:36;;;;;;;33.83;15.83;;;4.40;85.90;;;;;;5056666;28;20035;-80
2020/12/09 08:15:04;;;;;;;35.00;15.63;;;4.30;85.70;;;;;;5074895;28;20020;-80
2020/12/09 08:17:29;;;;;;;33.83;15.23;;;4.40;85.80;;;;;;5056305;28;20032;-81
2020/12/09 08:20:00;;;;;;;34.17;15.77;;;4.40;85.50;;;;;;5056212;28;20416;-79
2020/12/09 08:22:26;;;;;;;32.73;13.93;;;4.40;85.20;;;;;;5056767;28;20028;-82
2020/12/09 08:25:02;;;;;;;32.43;15.53;;;4.40;85.00;;;;;;5074439;28;20051;-80
2020/12/09 08:27:27;;;;;;;35.53;15.33;;;4.40;84.90;;;;;;5056336;28;20064;-81
2020/12/09 08:29:53;;;;;;;39.00;16.67;;;4.50;84.90;;;;;;5047560;28;20069;-80
2020/12/09 08:32:19;;;;;;;33.23;15.23;;;4.50;85.00;;;;;;5033625;28;20116;-80
2020/12/09 08:34:44;;;;;;;34.07;15.33;;;4.40;85.10;;;;;;5032889;28;20462;-80
2020/12/09 08:37:16;;;;;;;34.13;15.87;;;4.50;85.10;;;;;;5033283;28;20412;-80
2020/12/09 08:39:42;;;;;;;34.53;15.30;;;4.40;85.00;;;;;;5033173;28;20528;-81
2020/12/09 08:42:07;;;;;;;31.00;14.97;;;4.50;85.10;;;;;;5033608;28;20029;-78
2020/12/09 08:44:33;;;;;;;32.37;15.77;;;4.50;85.00;;;;;;5033909;28;20477;-81
2020/12/09 08:46:59;;;;;;;35.03;16.33;;;4.50;84.80;;;;;;5033480;28;20489;-81
2020/12/09 08:49:24;;;;;;;31.40;14.57;;;4.50;84.70;;;;;;5033393;28;20052;-81
2020/12/09 08:51:50;;;;;;;32.50;15.67;;;4.50;85.00;;;;;;5032987;28;20382;-80
2020/12/09 08:54:15;;;;;;;30.17;14.97;;;4.50;84.90;;;;;;5033268;28;20032;-81
2020/12/09 08:56:41;;;;;;;31.90;14.87;;;4.60;84.70;;;;;;5032624;28;20038;-80
2020/12/09 08:59:07;;;;;;;33.90;15.60;;;4.60;84.50;;;;;;5033637;28;20036;-80
2020/12/09 09:01:36;;;;;;;30.77;14.90;;;4.60;84.40;;;;;;5032861;28;20030;-80
2020/12/09 09:04:07;;;;;;;33.37;14.97;;;4.60;84.30;;;;;;5033111;28;20021;-80
2020/12/09 09:06:33;;;;;;;34.37;15.27;;;4.60;84.50;;;;;;5034025;28;20450;-80
2020/12/09 09:09:00;;;;;;;30.73;14.90;;;4.60;84.40;;;;;;5034213;28;20101;-79
2020/12/09 09:11:29;;;;;;;30.73;15.00;;;4.70;84.30;;;;;;5034426;28;20021;-79
2020/12/09 09:13:55;;;;;;;34.40;15.87;;;4.70;84.00;;;;;;5032840;28;20025;-79
2020/12/09 09:16:22;;;;;;;31.63;14.57;;;4.60;83.80;;;;;;5032924;28;20080;-79
2020/12/09 09:18:48;;;;;;;33.07;14.83;;;4.60;84.30;;;;;;5033577;28;20036;-78
2020/12/09 09:21:14;;;;;;;37.53;18.23;;;4.70;84.30;;;;;;5032870;28;20025;-79
2020/12/09 09:23:40;;;;;;;33.67;15.07;;;4.70;84.00;;;;;;5032249;28;20021;-78
2020/12/09 09:26:05;;;;;;;31.03;14.77;;;4.70;84.00;;;;;;5033853;28;20459;-79
2020/12/09 09:28:31;;;;;;;33.10;15.37;;;4.70;84.10;;;;;;5032265;28;20080;-78
2020/12/09 09:30:57;;;;;;;30.10;14.20;;;4.80;83.80;;;;;;5031673;28;20080;-79
2020/12/09 09:33:22;;;;;;;32.37;14.53;;;4.80;83.60;;;;;;5032603;28;20390;-79
2020/12/09 09:35:48;;;;;;;27.60;13.23;;;4.80;83.00;;;;;;5032275;28;20092;-78
2020/12/09 09:38:14;;;;;;;28.93;13.80;;;4.80;82.80;;;;;;5033737;28;20031;-79
2020/12/09 09:40:39;;;;;;;31.23;14.50;;;4.90;83.00;;;;;;5032254;28;20025;-80
2020/12/09 09:43:05;;;;;;;30.30;14.03;;;4.80;82.80;;;;;;5032521;28;20036;-79
2020/12/09 09:45:31;;;;;;;32.17;14.70;;;4.80;82.90;;;;;;5032412;28;20060;-81
2020/12/09 09:47:56;;;;;;;27.87;13.77;;;4.90;82.70;;;;;;5032560;28;20095;-79
2020/12/09 09:50:22;;;;;;;24.83;12.00;;;4.80;82.70;;;;;;5033431;28;20030;-79
2020/12/09 09:52:48;;;;;;;27.70;13.63;;;4.90;82.80;;;;;;5032008;28;20029;-78
2020/12/09 09:55:14;;;;;;;27.60;13.07;;;4.90;82.40;;;;;;5032372;28;20075;-79
2020/12/09 09:57:39;;;;;;;26.53;12.37;;;4.90;82.30;;;;;;5032005;28;20087;-79
2020/12/09 10:00:06;;;;;;;28.23;13.43;;;4.90;82.30;;;;;;5032631;28;20612;-79
2020/12/09 10:02:32;;;;;;;30.10;13.73;;;5.00;82.20;;;;;;5032211;28;20025;-80
2020/12/09 10:04:58;;;;;;;34.63;14.73;;;5.00;82.30;;;;;;5032603;28;20060;-79
2020/12/09 10:07:24;;;;;;;26.53;13.07;;;4.90;82.50;;;;;;5032217;28;20029;-79
2020/12/09 10:09:50;;;;;;;29.10;12.97;;;4.90;82.50;;;;;;5032169;28;20044;-80
2020/12/09 10:12:15;;;;;;;26.97;12.13;;;4.90;82.60;;;;;;5032622;28;20030;-81
2020/12/09 10:14:41;;;;;;;28.37;13.07;;;4.90;82.70;;;;;;5032161;28;20025;-81
2020/12/09 10:17:07;;;;;;;27.63;12.20;;;4.90;82.60;;;;;;5032199;28;20540;-79
2020/12/09 10:19:34;;;;;;;24.27;11.83;;;5.00;82.60;;;;;;5032408;28;20029;-82
2020/12/09 10:22:00;;;;;;;24.27;11.77;;;5.00;82.20;;;;;;5032340;28;20031;-81
2020/12/09 10:24:26;;;;;;;25.17;12.20;;;4.90;81.80;;;;;;5032523;28;20447;-81
2020/12/09 10:26:52;;;;;;;29.37;13.20;;;4.90;82.10;;;;;;5031452;28;20037;-81
2020/12/09 10:29:18;;;;;;;25.77;12.73;;;5.00;82.20;;;;;;5033319;28;20536;-80
2020/12/09 10:31:48;;;;;;;28.43;12.03;;;5.00;82.10;;;;;;5072737;28;20539;-81
2020/12/09 10:34:18;;;;;;;22.57;11.33;;;5.00;82.20;;;;;;5055737;28;20051;-80
2020/12/09 10:36:48;;;;;;;24.73;10.20;;;5.00;81.90;;;;;;5054965;28;20029;-81
2020/12/09 10:39:15;;;;;;;23.43;10.87;;;5.10;81.80;;;;;;5055348;28;20484;-81
2020/12/09 10:41:42;;;;;;;21.00;11.00;;;5.10;82.30;;;;;;5055098;28;20024;-81
2020/12/09 10:44:08;;;;;;;22.47;11.23;;;5.10;81.50;;;;;;5059169;28;20039;-81
2020/12/09 10:46:36;;;;;;;27.40;12.70;;;5.10;81.50;;;;;;5059167;28;20029;-81
2020/12/09 10:49:03;;;;;;;21.47;10.97;;;5.10;81.30;;;;;;5058807;28;20123;-80
2020/12/09 10:51:29;;;;;;;20.63;9.13;;;5.10;80.60;;;;;;5059166;28;20101;-79
2020/12/09 10:53:56;;;;;;;19.63;9.70;;;5.10;80.50;;;;;;5076379;28;20029;-80
2020/12/09 10:56:29;;;;;;;20.37;9.83;;;5.20;80.50;;;;;;5077030;28;20028;-81
2020/12/09 10:58:56;;;;;;;19.13;9.40;;;5.10;80.60;;;;;;5058498;28;20332;-81
2020/12/09 11:01:24;;;;;;;17.87;9.13;;;5.10;80.50;;;;;;5058688;28;20025;-80
2020/12/09 11:03:50;;;;;;;17.70;9.13;;;5.10;80.60;;;;;;5058174;28;20024;-81
2020/12/09 11:06:16;;;;;;;20.77;9.97;;;5.20;81.30;;;;;;5058691;28;20541;-81
2020/12/09 11:08:42;;;;;;;18.33;9.60;;;5.20;80.30;;;;;;5058547;28;20029;-80
2020/12/09 11:11:08;;;;;;;16.60;8.97;;;5.20;80.20;;;;;;5058632;28;20056;-80
2020/12/09 11:13:34;;;;;;;22.77;9.77;;;5.20;80.00;;;;;;5058793;28;20465;-80
2020/12/09 11:16:00;;;;;;;21.23;10.60;;;5.20;79.90;;;;;;5057975;28;20466;-80
2020/12/09 11:18:26;;;;;;;19.57;9.93;;;5.20;79.90;;;;;;5058961;28;20052;-81
2020/12/09 11:20:52;;;;;;;19.37;9.67;;;5.30;79.90;;;;;;5058410;28;20061;-80
2020/12/09 11:23:18;;;;;;;22.50;9.87;;;5.30;79.80;;;;;;5058571;28;20021;-81
2020/12/09 11:25:44;;;;;;;18.40;9.37;;;5.30;79.60;;;;;;5057996;28;20025;-81
2020/12/09 11:28:09;;;;;;;18.07;9.30;;;5.30;79.60;;;;;;5058496;28;20112;-80
2020/12/09 11:30:35;;;;;;;21.83;10.13;;;5.20;79.80;;;;;;5058213;28;20101;-80
2020/12/09 11:33:01;;;;;;;19.13;9.37;;;5.30;79.90;;;;;;5057843;28;20059;-80
2020/12/09 11:35:26;;;;;;;20.77;10.73;;;5.30;79.80;;;;;;5076118;28;20377;-81
2020/12/09 11:37:54;;;;;;;19.03;9.83;;;5.30;79.80;;;;;;5057330;28;20028;-81
2020/12/09 11:40:25;;;;;;;18.73;9.83;;;5.30;79.80;;;;;;5058282;28;20031;-80
2020/12/09 11:42:50;;;;;;;20.47;9.90;;;5.30;80.00;;;;;;5057962;28;20029;-80
2020/12/09 11:45:16;;;;;;;20.57;10.40;;;5.30;79.90;;;;;;5057763;28;20024;-81
2020/12/09 11:47:42;;;;;;;21.53;9.80;;;5.30;79.70;;;;;;5057351;28;20033;-81
2020/12/09 11:50:07;;;;;;;21.73;10.17;;;5.30;79.80;;;;;;5057949;28;20066;-80
2020/12/09 11:52:33;;;;;;;19.30;9.90;;;5.40;79.80;;;;;;5057953;28;20116;-80
2020/12/09 11:54:59;;;;;;;20.33;9.30;;;5.30;79.80;;;;;;5056421;28;20024;-81
2020/12/09 11:57:24;;;;;;;20.30;10.10;;;5.30;79.80;;;;;;5075583;28;20043;-82
2020/12/09 11:59:50;;;;;;;24.30;11.00;;;5.30;79.60;;;;;;5057471;28;20466;-81
2020/12/09 12:02:16;;;;;;;20.13;9.63;;;5.30;79.70;;;;;;5057997;28;20453;-80
2020/12/09 12:04:42;;;;;;;19.40;9.53;;;5.40;79.60;;;;;;5057194;28;20461;-82
2020/12/09 12:07:07;;;;;;;16.73;9.27;;;5.40;79.60;;;;;;5075336;28;20086;-80
2020/12/09 12:09:33;;;;;;;21.07;9.53;;;5.40;79.60;;;;;;5057686;28;20028;-81
2020/12/09 12:11:59;;;;;;;19.77;10.00;;;5.40;79.40;;;;;;5057081;28;20255;-81
2020/12/09 12:14:24;;;;;;;18.87;9.50;;;5.40;79.60;;;;;;5057755;28;20033;-81
2020/12/09 12:16:50;;;;;;;21.60;10.37;;;5.40;79.50;;;;;;5057083;28;20028;-81
2020/12/09 12:19:17;;;;;;;20.37;10.40;;;5.40;79.40;;;;;;5057540;28;20035;-81
2020/12/09 12:21:47;;;;;;;17.80;8.90;;;5.40;79.20;;;;;;5056958;28;20028;-81
2020/12/09 12:24:12;;;;;;;19.80;10.07;;;5.40;79.40;;;;;;5057412;28;20112;-81
2020/12/09 12:26:38;;;;;;;18.07;9.90;;;5.40;79.20;;;;;;5057251;28;20060;-81
2020/12/09 12:29:03;;;;;;;19.27;9.47;;;5.40;79.40;;;;;;5057086;28;20035;-81
2020/12/09 12:31:29;;;;;;;21.13;10.43;;;5.40;79.70;;;;;;5057299;28;20059;-80
2020/12/09 12:33:55;;;;;;;23.97;10.13;;;5.40;79.40;;;;;;5056708;28;20052;-80
2020/12/09 12:36:21;;;;;;;21.93;10.20;;;5.40;79.40;;;;;;5057186;28;20056;-81
2020/12/09 12:38:47;;;;;;;20.20;9.87;;;5.40;79.40;;;;;;5056721;28;20021;-81
2020/12/09 12:41:13;;;;;;;19.67;9.73;;;5.40;79.40;;;;;;5056993;28;20051;-81